TimeMDT,TemperatureF,Dew PointF,Humidity,Sea Level PressureIn,VisibilityMPH,Wind Direction,Wind SpeedMPH,Gust SpeedMPH,PrecipitationIn,Events,Conditions,WindDirDegrees,DateUTC
12:15 AM,48.4,38.3,68,30.18,10.0,East,18.4,26.5,N/A,,Clear,80,2012-10-06 06:15:00
12:35 AM,48.2,37.9,68,30.21,10.0,WSW,6.9,21.9,N/A,,Clear,240,2012-10-06 06:35:00
12:55 AM,48.2,38.5,69,30.22,10.0,SSE,4.6,-,N/A,,Clear,160,2012-10-06 06:55:00
1:15 AM,47.7,38.3,70,30.22,10.0,ESE,6.9,-,N/A,,Clear,120,2012-10-06 07:15:00
1:35 AM,47.3,38.3,71,30.22,10.0,East,8.1,-,N/A,,Clear,80,2012-10-06 07:35:00
1:55 AM,46.4,38.3,73,30.23,10.0,East,4.6,-,N/A,,Clear,80,2012-10-06 07:55:00
2:15 AM,46.4,38.1,73,30.24,10.0,SSW,4.6,-,N/A,,Scattered Clouds,200,2012-10-06 08:15:00
2:35 AM,47.3,38.5,71,30.23,10.0,SE,9.2,-,N/A,,Overcast,130,2012-10-06 08:35:00
2:55 AM,46.8,38.5,73,30.23,10.0,SE,8.1,-,N/A,,Overcast,130,2012-10-06 08:55:00
3:15 AM,46.4,37.6,71,30.22,10.0,SSE,9.2,-,N/A,,Overcast,150,2012-10-06 09:15:00
3:35 AM,45.5,37.4,73,30.21,10.0,SE,9.2,-,N/A,,Overcast,140,2012-10-06 09:35:00
3:55 AM,45.0,37.0,74,30.22,10.0,SE,6.9,-,N/A,,Overcast,140,2012-10-06 09:55:00
4:15 AM,44.6,37.2,75,30.20,10.0,SE,9.2,-,N/A,,Overcast,140,2012-10-06 10:15:00
4:35 AM,43.9,37.0,77,30.21,10.0,SE,8.1,-,N/A,,Overcast,130,2012-10-06 10:35:00
4:55 AM,43.9,37.4,78,30.20,10.0,SE,9.2,-,N/A,,Overcast,130,2012-10-06 10:55:00
5:15 AM,43.7,37.0,77,30.20,10.0,SSE,6.9,-,N/A,,Overcast,150,2012-10-06 11:15:00
5:35 AM,43.3,38.8,84,30.21,10.0,South,8.1,-,N/A,,Overcast,170,2012-10-06 11:35:00
5:55 AM,42.8,38.5,85,30.20,10.0,SSE,9.2,-,N/A,,Overcast,160,2012-10-06 11:55:00
6:15 AM,42.8,38.5,85,30.21,10.0,South,6.9,-,N/A,,Overcast,170,2012-10-06 12:15:00
6:35 AM,42.6,38.7,86,30.21,10.0,South,8.1,-,N/A,,Overcast,180,2012-10-06 12:35:00
6:55 AM,42.4,39.0,88,30.19,10.0,South,8.1,-,N/A,,Overcast,170,2012-10-06 12:55:00
7:35 AM,42.1,39.6,91,30.21,5.0,SSE,6.9,-,N/A,,Overcast,150,2012-10-06 13:35:00
8:15 AM,43.0,39.4,87,30.20,10.0,South,10.4,-,N/A,,Overcast,170,2012-10-06 14:15:00
8:35 AM,43.2,39.2,86,30.20,10.0,South,10.4,-,N/A,,Overcast,170,2012-10-06 14:35:00
8:55 AM,43.7,39.2,84,30.21,10.0,SSE,9.2,-,N/A,,Overcast,160,2012-10-06 14:55:00
9:15 AM,44.1,39.2,83,30.22,10.0,South,8.1,-,N/A,,Overcast,170,2012-10-06 15:15:00
9:35 AM,45.1,39.4,80,30.21,10.0,SSE,9.2,-,N/A,,Overcast,160,2012-10-06 15:35:00
9:55 AM,45.5,39.4,79,30.21,10.0,SSE,6.9,-,N/A,,Overcast,150,2012-10-06 15:55:00
10:15 AM,47.5,39.6,74,30.20,10.0,SSE,8.1,-,N/A,,Overcast,150,2012-10-06 16:15:00
10:35 AM,49.6,39.6,68,30.19,10.0,South,6.9,-,N/A,,Mostly Cloudy,180,2012-10-06 16:35:00
10:55 AM,51.4,39.9,65,30.19,10.0,SSE,5.8,-,N/A,,Scattered Clouds,160,2012-10-06 16:55:00
11:15 AM,53.2,39.9,61,30.18,10.0,South,6.9,-,N/A,,Scattered Clouds,180,2012-10-06 17:15:00
11:35 AM,54.7,40.1,58,30.16,10.0,SSE,11.5,-,N/A,,Clear,160,2012-10-06 17:35:00
11:55 AM,56.1,40.1,55,30.16,10.0,SE,9.2,-,N/A,,Clear,140,2012-10-06 17:55:00
12:15 PM,59.2,39.9,49,30.14,10.0,SSE,9.2,16.1,N/A,,Clear,150,2012-10-06 18:15:00
12:35 PM,62.1,39.9,44,30.13,10.0,SSE,11.5,17.3,N/A,,Clear,160,2012-10-06 18:35:00
12:55 PM,63.7,38.8,40,30.12,10.0,South,10.4,17.3,N/A,,Clear,180,2012-10-06 18:55:00
1:15 PM,65.8,38.1,36,30.10,10.0,South,12.7,-,N/A,,Clear,170,2012-10-06 19:15:00
1:35 PM,66.7,38.5,35,30.09,10.0,SSE,11.5,17.3,N/A,,Clear,150,2012-10-06 19:35:00
1:55 PM,68.4,38.5,33,30.08,10.0,SSE,15.0,21.9,N/A,,Clear,160,2012-10-06 19:55:00
2:15 PM,68.7,36.9,31,30.07,10.0,SSE,10.4,-,N/A,,Clear,160,2012-10-06 20:15:00
2:35 PM,70.7,36.1,28,30.06,10.0,SSE,15.0,-,N/A,,Clear,160,2012-10-06 20:35:00
2:55 PM,70.5,36.7,29,30.05,10.0,SSE,16.1,23.0,N/A,,Clear,150,2012-10-06 20:55:00
3:15 PM,71.6,34.9,26,30.04,10.0,SSE,18.4,24.2,N/A,,Scattered Clouds,150,2012-10-06 21:15:00
3:35 PM,72.0,34.3,25,30.04,10.0,South,13.8,-,N/A,,Scattered Clouds,170,2012-10-06 21:35:00
3:55 PM,71.2,34.5,26,30.04,7.0,SSE,17.3,24.2,N/A,,Mostly Cloudy,160,2012-10-06 21:55:00
4:15 PM,68.5,36.5,31,30.04,10.0,SE,17.3,-,N/A,,Mostly Cloudy,140,2012-10-06 22:15:00
4:35 PM,65.3,36.7,35,30.05,10.0,SE,20.7,-,N/A,,Mostly Cloudy,130,2012-10-06 22:35:00
4:55 PM,61.9,38.3,42,30.05,4.0,ESE,25.3,-,N/A,,Haze,110,2012-10-06 22:55:00
5:15 PM,55.9,38.5,52,30.06,7.0,East,20.7,26.5,N/A,,Scattered Clouds,100,2012-10-06 23:15:00
5:35 PM,52.7,38.3,58,30.08,10.0,East,11.5,25.3,N/A,,Clear,100,2012-10-06 23:35:00
5:55 PM,50.0,38.3,64,30.10,10.0,East,17.3,23.0,N/A,,Clear,100,2012-10-06 23:55:00
6:15 PM,46.8,37.9,71,30.11,10.0,East,17.3,26.5,N/A,,Clear,100,2012-10-07 00:15:00
6:35 PM,44.8,37.8,76,30.16,10.0,ESE,9.2,16.1,N/A,,Scattered Clouds,120,2012-10-07 00:35:00
6:55 PM,43.7,37.6,79,30.16,10.0,East,11.5,18.4,N/A,,Mostly Cloudy,100,2012-10-07 00:55:00
7:15 PM,43.7,37.4,78,30.18,10.0,East,12.7,17.3,N/A,,Overcast,100,2012-10-07 01:15:00
7:35 PM,43.2,37.4,80,30.19,10.0,East,8.1,-,N/A,,Overcast,90,2012-10-07 01:35:00
7:55 PM,42.8,37.0,80,30.20,10.0,ESE,8.1,-,N/A,,Overcast,110,2012-10-07 01:55:00
8:15 PM,43.0,36.5,78,30.22,10.0,East,6.9,-,N/A,,Overcast,90,2012-10-07 02:15:00
8:35 PM,43.0,36.1,77,30.22,10.0,ESE,9.2,-,N/A,,Overcast,110,2012-10-07 02:35:00
8:55 PM,42.1,35.6,78,30.25,10.0,East,12.7,-,N/A,,Overcast,100,2012-10-07 02:55:00
10:15 PM,40.6,32.0,71,30.26,10.0,East,12.7,16.1,N/A,,Overcast,100,2012-10-07 04:15:00
10:35 PM,40.6,31.8,71,30.25,10.0,ESE,18.4,-,N/A,,Overcast,110,2012-10-07 04:35:00
11:15 PM,40.5,31.5,70,30.25,10.0,East,10.4,18.4,N/A,,Overcast,90,2012-10-07 05:15:00
11:35 PM,40.3,31.1,70,30.26,10.0,East,10.4,-,N/A,,Overcast,90,2012-10-07 05:35:00
11:55 PM,40.1,30.9,70,30.26,10.0,East,10.4,-,N/A,,Overcast,100,2012-10-07 05:55:00